Flight Track Log - Related Links

Times and Time Zones

All times are in EDT time to prevent confusion due to time zone crossing. See the FIN873 flight status page for this flight to view local times or setup timezone preferences in your user account.

Time Position Orientation Groundspeed Altitude Reporting Facility
EDT Latitude Longitude Course Direction KTS MPH feet Rate Location/Type
Wed 09:21:00 AM 60.1514 24.4223 239° Southwest  Level Estimated
Wed 09:22:00 AM 60.0956 24.2432 238° Southwest  Level Estimated
Wed 09:23:00 AM 60.0396 24.0646 238° Southwest  Level Estimated
Wed 09:24:00 AM 59.9834 23.8867 238° Southwest  Level Estimated
Wed 09:25:00 AM 59.9269 23.7094 238° Southwest  Level Estimated
Wed 09:26:00 AM 59.8695 23.5305 237° Southwest  Level Estimated
Wed 09:27:00 AM 59.8118 23.3522 237° Southwest  Level Estimated
Wed 09:28:00 AM 59.7539 23.1745 237° Southwest  Level Estimated
Wed 09:29:00 AM 59.6958 22.9975 237° Southwest  Level Estimated
Wed 09:30:00 AM 59.6374 22.8210 237° Southwest  Level Estimated
Wed 09:31:00 AM 59.5788 22.6452 237° Southwest  Level Estimated
Wed 09:32:00 AM 59.5199 22.4700 237° Southwest  Level Estimated
Wed 09:33:00 AM 59.4608 22.2954 236° Southwest  Level Estimated
Wed 09:34:00 AM 59.4015 22.1214 236° Southwest  Level Estimated
Wed 09:35:00 AM 59.3419 21.9480 236° Southwest  Level Estimated
Wed 09:36:00 AM 59.2822 21.7752 236° Southwest  Level Estimated
Wed 09:37:00 AM 59.2221 21.6030 236° Southwest  Level Estimated
Wed 09:38:00 AM 59.1619 21.4315 236° Southwest  Level Estimated
Wed 09:39:00 AM 59.1014 21.2605 235° Southwest  Level Estimated
Wed 09:40:00 AM 59.0407 21.0901 235° Southwest  Level Estimated
Wed 09:41:00 AM 58.9798 20.9204 235° Southwest  Level Estimated
Wed 09:42:00 AM 58.9187 20.7512 235° Southwest  Level Estimated
Wed 09:43:00 AM 58.8574 20.5827 235° Southwest  Level Estimated
Wed 09:44:00 AM 58.7958 20.4147 235° Southwest  Level Estimated
Wed 09:45:00 AM 58.7340 20.2473 235° Southwest  Level Estimated
Wed 09:46:00 AM 58.6720 20.0806 234° Southwest  Level Estimated
Wed 09:47:00 AM 58.6098 19.9144 234° Southwest  Level Estimated
Wed 09:48:00 AM 58.5474 19.7488 234° Southwest  Level Estimated
Wed 09:49:00 AM 58.4847 19.5838 234° Southwest  Level Estimated
Wed 09:50:00 AM 58.4219 19.4194 234° Southwest  Level Estimated
Wed 09:51:00 AM 58.3588 19.2556 234° Southwest  Level Estimated
Wed 09:52:00 AM 58.2955 19.0923 234° Southwest  Level Estimated
Wed 09:53:00 AM 58.2321 18.9297 233° Southwest  Level Estimated
Wed 09:54:00 AM 58.1684 18.7676 233° Southwest  Level Estimated
Wed 09:55:00 AM 58.1045 18.6061 233° Southwest  Level Estimated
Wed 09:56:00 AM 58.0404 18.4452 233° Southwest  Level Estimated
Wed 09:57:00 AM 57.9761 18.2849 233° Southwest  Level Estimated
Wed 09:58:00 AM 57.9116 18.1251 233° Southwest  Level Estimated
Wed 09:59:00 AM 57.8469 17.9659 233° Southwest  Level Estimated
Wed 10:00:00 AM 57.7820 17.8073 233° Southwest  Level Estimated
Wed 10:01:00 AM 57.7169 17.6493 232° Southwest  Level Estimated
Wed 10:02:00 AM 57.6516 17.4918 232° Southwest  Level Estimated
Wed 10:03:00 AM 57.5861 17.3349 232° Southwest  Level Estimated
Wed 10:04:00 AM 57.5204 17.1785 232° Southwest  Level Estimated
Wed 10:05:00 AM 57.4546 17.0227 232° Southwest  Level Estimated
Wed 10:06:00 AM 57.3885 16.8675 232° Southwest  Level Estimated
Wed 10:07:00 AM 57.3223 16.7129 232° Southwest  Level Estimated
Wed 10:08:00 AM 57.2558 16.5588 231° Southwest  Level Estimated
Wed 10:09:00 AM 57.1892 16.4052 231° Southwest  Level Estimated
Wed 10:10:00 AM 57.1224 16.2522 231° Southwest  Level Estimated
Wed 10:11:00 AM 57.0554 16.0998 231° Southwest  Level Estimated
Wed 10:12:00 AM 56.9882 15.9479 231° Southwest  Level Estimated
Wed 10:13:00 AM 56.9208 15.7965 231° Southwest  Level Estimated
Wed 10:14:00 AM 56.8533 15.6457 231° Southwest  Level Estimated
Wed 10:15:00 AM 56.7855 15.4955 231° Southwest  Level Estimated
Wed 10:16:00 AM 56.7176 15.3458 230° Southwest  Level Estimated
Wed 10:17:00 AM 56.6495 15.1966 230° Southwest  Level Estimated
Wed 10:18:00 AM 56.5813 15.0480 230° Southwest  Level Estimated
Wed 10:19:00 AM 56.5128 14.8999 230° Southwest  Level Estimated
Wed 10:20:00 AM 56.4442 14.7523 230° Southwest  Level Estimated
Wed 10:21:00 AM 56.3754 14.6053 230° Southwest  Level Estimated
Wed 10:22:00 AM 56.3064 14.4588 230° Southwest  Level Estimated
Wed 10:23:00 AM 56.2373 14.3128 230° Southwest  Level Estimated
Wed 10:24:00 AM 56.1680 14.1674 229° Southwest  Level Estimated
Wed 10:25:00 AM 56.0985 14.0224 229° Southwest  Level Estimated
Wed 10:26:00 AM 56.0288 13.8780 229° Southwest  Level Estimated
Wed 10:27:00 AM 55.9590 13.7342 229° Southwest  Level Estimated
Wed 10:28:00 AM 55.8890 13.5908 229° Southwest  Level Estimated
Wed 10:29:00 AM 55.8189 13.4480 229° Southwest  Level Estimated
Wed 10:30:00 AM 55.7486 13.3056 229° Southwest  Level Estimated
Wed 10:31:00 AM 55.6781 13.1638 229° Southwest  Level Estimated
Wed 10:32:00 AM 55.6074 13.0225 229° Southwest  Level Estimated
Wed 10:33:00 AM 55.5366 12.8817 228° Southwest  Level Estimated
Wed 10:34:00 AM 55.4657 12.7414 228° Southwest  Level Estimated
Wed 10:35:00 AM 55.3945 12.6017 228° Southwest  Level Estimated
Wed 10:36:00 AM 55.3232 12.4624 228° Southwest  Level Estimated
Wed 10:37:00 AM 55.2518 12.3236 228° Southwest  Level Estimated
Wed 10:38:00 AM 55.1802 12.1853 228° Southwest  Level Estimated
Wed 10:39:00 AM 55.1084 12.0475 228° Southwest  Level Estimated
Wed 10:40:00 AM 55.0365 11.9102 228° Southwest  Level Estimated
Wed 10:41:00 AM 54.9645 11.7734 227° Southwest  Level Estimated
Wed 10:42:00 AM 54.8923 11.6371 227° Southwest  Level Estimated
Wed 10:43:00 AM 54.8199 11.5013 227° Southwest  Level Estimated
Wed 10:44:00 AM 54.7474 11.3660 227° Southwest  Level Estimated
Wed 10:45:00 AM 54.6747 11.2311 227° Southwest  Level Estimated
Wed 10:46:00 AM 54.6019 11.0968 227° Southwest  Level Estimated
Wed 10:47:00 AM 54.5289 10.9629 227° Southwest  Level Estimated
Wed 10:48:00 AM 54.4558 10.8295 227° Southwest  Level Estimated
Wed 10:49:00 AM 54.3825 10.6965 227° Southwest  Level Estimated
Wed 10:50:00 AM 54.3091 10.5641 226° Southwest  Level Estimated
Wed 10:51:00 AM 54.2356 10.4321 226° Southwest  Level Estimated
Wed 10:52:00 AM 54.1619 10.3006 226° Southwest  Level Estimated
Wed 10:53:00 AM 54.0880 10.1695 226° Southwest  Level Estimated
Wed 10:54:00 AM 54.0140 10.0390 226° Southwest  Level Estimated
Wed 10:55:00 AM 53.9399 9.9088 226° Southwest  Level Estimated
Wed 10:56:00 AM 53.8657 9.7792 226° Southwest  Level Estimated
Wed 10:57:00 AM 53.7913 9.6500 226° Southwest  Level Estimated
Wed 10:58:00 AM 53.7167 9.5213 226° Southwest  Level Estimated
Wed 10:59:00 AM 53.6420 9.3930 226° Southwest  Level Estimated
Wed 11:00:00 AM 53.5672 9.2652 225° Southwest  Level Estimated
Wed 11:01:00 AM 53.4923 9.1378 225° Southwest  Level Estimated
Wed 11:02:00 AM 53.4172 9.0108 225° Southwest  Level Estimated
Wed 11:03:00 AM 53.3420 8.8844 225° Southwest  Level Estimated
Wed 11:04:00 AM 53.2666 8.7583 225° Southwest  Level Estimated
Wed 11:05:00 AM 53.1912 8.6327 225° Southwest  Level Estimated
Wed 11:06:00 AM 53.1155 8.5076 225° Southwest  Level Estimated
Wed 11:07:00 AM 53.0398 8.3829 225° Southwest  Level Estimated
Wed 11:08:00 AM 52.9639 8.2586 225° Southwest  Level Estimated
Wed 11:09:00 AM 52.8879 8.1348 225° Southwest  Level Estimated
Wed 11:10:00 AM 52.8113 8.0106 224° Southwest  Level Estimated
Wed 11:11:00 AM 52.7345 7.8869 224° Southwest  Level Estimated
Wed 11:12:00 AM 52.6577 7.7636 224° Southwest  Level Estimated
Wed 11:13:00 AM 52.5807 7.6407 224° Southwest  Level Estimated
Wed 11:14:00 AM 52.5036 7.5183 224° Southwest  Level Estimated
Wed 11:15:00 AM 52.4263 7.3962 224° Southwest  Level Estimated
Wed 11:16:00 AM 52.3489 7.2747 224° Southwest  Level Estimated
Wed 11:17:00 AM 52.2714 7.1535 224° Southwest  Level Estimated
Wed 11:18:00 AM 52.1938 7.0328 224° Southwest  Level Estimated
Wed 11:19:00 AM 52.1161 6.9125 224° Southwest  Level Estimated
Wed 11:20:00 AM 52.0382 6.7926 223° Southwest  Level Estimated
Wed 11:21:00 AM 51.9602 6.6731 223° Southwest  Level Estimated
Wed 11:22:00 AM 51.8821 6.5541 223° Southwest  Level Estimated
Wed 11:23:00 AM 51.8038 6.4354 223° Southwest  Level Estimated
Wed 11:24:00 AM 51.7255 6.3172 223° Southwest  Level Estimated
Wed 11:25:00 AM 51.6470 6.1994 223° Southwest  Level Estimated
Wed 11:26:00 AM 51.5685 6.0819 223° Southwest  Level Estimated
Wed 11:27:00 AM 51.4897 5.9649 223° Southwest  Level Estimated
Wed 11:28:00 AM 51.4109 5.8483 223° Southwest  Level Estimated
Wed 11:29:00 AM 51.3320 5.7321 223° Southwest  Level Estimated
Wed 11:30:00 AM 51.2529 5.6163 223° Southwest  Level Estimated
Wed 11:31:00 AM 51.1738 5.5009 222° Southwest  Level Estimated
Wed 11:32:00 AM 51.0945 5.3859 222° Southwest  Level Estimated
Wed 11:33:00 AM 51.0151 5.2713 222° Southwest  Level Estimated
Wed 11:34:00 AM 50.9356 5.1570 222° Southwest  Level Estimated
Wed 11:35:00 AM 50.8560 5.0432 222° Southwest  Level Estimated
Wed 11:36:00 AM 50.7763 4.9297 222° Southwest  Level Estimated
Wed 11:37:00 AM 50.6965 4.8167 222° Southwest  Level Estimated
Wed 11:38:00 AM 50.6165 4.7040 222° Southwest  Level Estimated
Wed 11:39:00 AM 50.5365 4.5917 222° Southwest  Level Estimated
Wed 11:40:00 AM 50.4563 4.4798 222° Southwest  Level Estimated
Wed 11:41:00 AM 50.3761 4.3682 222° Southwest  Level Estimated
Wed 11:42:00 AM 50.2957 4.2571 221° Southwest  Level Estimated
Wed 11:43:00 AM 50.2152 4.1463 221° Southwest  Level Estimated
Wed 11:44:00 AM 50.1347 4.0359 221° Southwest  Level Estimated
Wed 11:45:00 AM 50.0540 3.9259 221° Southwest  Level Estimated
Wed 11:46:00 AM 49.9732 3.8162 221° Southwest  Level Estimated
Wed 11:47:00 AM 49.8923 3.7069 221° Southwest  Level Estimated
Wed 11:48:00 AM 49.8113 3.5979 221° Southwest  Level Estimated
Wed 11:49:00 AM 49.7302 3.4894 221° Southwest  Level Estimated
Wed 11:50:00 AM 49.6490 3.3812 221° Southwest  Level Estimated
Wed 11:51:00 AM 49.5677 3.2733 221° Southwest  Level Estimated
Wed 11:52:00 AM 49.4863 3.1658 221° Southwest  Level Estimated
Wed 11:53:00 AM 49.4048 3.0587 221° Southwest  Level Estimated
Wed 11:54:00 AM 49.3232 2.9519 220° Southwest  Level Estimated
Wed 11:55:00 AM 49.2416 2.8455 220° Southwest  Level Estimated
Wed 11:56:00 AM 49.1598 2.7394 220° Southwest  Level Estimated
Wed 11:57:00 AM 49.0779 2.6337 220° Southwest  Level Estimated
Wed 11:58:00 AM 49.0128 2.5500 220° Southwest  Level Estimated
Wed 11:59:00 AM 49.0128 2.5500 180° South  Level Estimated
Wed 12:00:00 PM 49.0128 2.5500 180° South  Level Estimated
Wed 12:01:00 PM 49.0128 2.5500 180° South  Level Estimated
Wed 12:02:00 PM 49.0128 2.5500 180° South  Level Estimated
Wed 12:03:00 PM 49.0128 2.5500 180° South  Level Estimated
Wed 12:04:00 PM 49.0128 2.5500 180° South  Level Estimated
Wed 12:05:00 PM 49.0128 2.5500 180° South  Level Estimated
Wed 12:06:00 PM 49.0128 2.5500 180° South  Level Estimated
Wed 12:07:00 PM 49.0128 2.5500 180° South  Level Estimated
Wed 12:08:00 PM 49.0128 2.5500 180° South  Level Estimated
Wed 12:09:00 PM 49.0128 2.5500 180° South  Level Estimated
Wed 12:10:00 PM 49.0128 2.5500 180° South  Level Estimated
Wed 12:11:00 PM 49.0128 2.5500 180° South  Level Estimated
Wed 12:12:00 PM 49.0128 2.5500 180° South  Level Estimated
Wed 12:13:00 PM 49.0128 2.5500 180° South  Level Estimated

Login

Don't have an account? Register now (free) for customized features, flight alerts, and more!